»·PEaware :: N262H KBFL-KVGT

N262H :: KBFL-KVGT

FLIGHT INFORMATION

Flight Status: Arrived
Operator: Privately registered:
United States
More flights under this callsign
Pilot: Paul K. (16555)
Aircraft: PIPER PA-30 TWIN COMANCHE
(PA30)
More flights by this aircraft type
Origin: KBFL Meadows
United States
Destination: KVGT North Las Vegas
United States
More flights between these airports :: More routes between these airports
Route:
File this flight plan on PilotEdge
Remarks:
Altitude:
(Current/Filed)
11,500ft
Speed:
(Current/Filed)
160kts
Departed: 06-Oct-17 06:58 PM
Arrived: 06-Oct-17 08:50 PM
Distance/Time
Traveled:
193nm/1:51
Distance/Time
To Go:
Arrived

Flight Plot

Page will automatically refresh every two minutes.

Flight plan parsing failed; only flown route is shown


Map Options




Map Legend


Flown Route
Filed Route
Departure Airport
Arrival Airport
Navaid (VOR, NDB)
Fix

Horizontal Profiles

Position Reports

Time Latitude Longitude Heading Altitude Ground
Speed
06-Oct-17 18:54 35.429376 -119.046099 226 509ft 0kts
06-Oct-17 18:55 35.429376 -119.046099 226 509ft 0kts
06-Oct-17 18:56 35.429376 -119.046099 226 509ft 0kts
06-Oct-17 18:57 35.427550 -119.046153 167 509ft 15kts
06-Oct-17 18:58 35.425813 -119.044540 236 508ft 0kts
06-Oct-17 18:59 35.425813 -119.044540 236 508ft 0kts
06-Oct-17 19:00 35.425813 -119.044540 236 508ft 0kts
06-Oct-17 19:01 35.426034 -119.046755 314 509ft 26kts
06-Oct-17 19:02 35.444402 -119.058534 15 1534ft 96kts
06-Oct-17 19:03 35.470181 -119.044674 23 2984ft 103kts
06-Oct-17 19:04 35.493566 -119.027184 31 4298ft 101kts
06-Oct-17 19:05 35.503934 -118.995977 77 5590ft 104kts
06-Oct-17 19:06 35.512208 -118.960968 72 6704ft 107kts
06-Oct-17 19:07 35.518559 -118.926812 74 7715ft 102kts
06-Oct-17 19:08 35.525587 -118.891231 73 8526ft 110kts
06-Oct-17 19:09 35.532936 -118.854157 73 9297ft 112kts
06-Oct-17 19:10 35.540563 -118.815792 73 9958ft 120kts
06-Oct-17 19:11 35.548549 -118.775461 73 10614ft 122kts
06-Oct-17 19:12 35.556286 -118.735877 71 11243ft 122kts
06-Oct-17 19:13 35.564876 -118.692922 71 11532ft 141kts
06-Oct-17 19:14 35.574530 -118.644374 71 11524ft 147kts
06-Oct-17 19:15 35.584176 -118.595233 72 11522ft 148kts
06-Oct-17 19:16 35.593857 -118.545827 72 11524ft 148kts
06-Oct-17 19:17 35.601644 -118.505995 71 11665ft 143kts
06-Oct-17 19:18 35.611139 -118.457389 71 11670ft 147kts
06-Oct-17 19:19 35.620690 -118.408239 72 11669ft 148kts
06-Oct-17 19:20 35.630329 -118.358630 71 11659ft 149kts
06-Oct-17 19:21 35.639460 -118.310450 73 11658ft 149kts
06-Oct-17 19:22 35.657042 -118.265548 61 11597ft 150kts
06-Oct-17 19:23 35.670845 -118.217733 71 11556ft 150kts
06-Oct-17 19:24 35.680858 -118.167733 74 11557ft 150kts
06-Oct-17 19:25 35.689259 -118.117390 76 11562ft 150kts
06-Oct-17 19:26 35.697050 -118.066588 76 11558ft 151kts
06-Oct-17 19:27 35.704528 -118.015963 76 11558ft 150kts
06-Oct-17 19:28 35.714038 -117.966242 50 11556ft 147kts
06-Oct-17 19:29 35.738378 -117.926063 49 11558ft 146kts
06-Oct-17 19:30 35.762950 -117.885937 50 11558ft 146kts
06-Oct-17 19:31 35.787263 -117.846010 51 11558ft 145kts
06-Oct-17 19:32 35.816823 -117.822997 322 11554ft 142kts
06-Oct-17 19:33 35.827462 -117.870043 282 11559ft 145kts
06-Oct-17 19:34 35.835040 -117.919104 282 11558ft 146kts
06-Oct-17 19:35 35.865004 -117.933250 41 11558ft 142kts
06-Oct-17 19:36 35.864455 -117.885751 103 11559ft 149kts
06-Oct-17 19:37 35.827872 -117.883484 207 11296ft 166kts
06-Oct-17 19:38 35.792142 -117.911831 211 11516ft 145kts
06-Oct-17 19:39 35.756730 -117.937936 221 11510ft 150kts
06-Oct-17 19:40 35.774644 -117.965008 358 11517ft 141kts
06-Oct-17 19:41 35.813991 -117.965921 358 11512ft 142kts
06-Oct-17 19:42 35.853509 -117.966814 358 11512ft 142kts
06-Oct-17 19:43 35.893358 -117.967715 358 11475ft 143kts
06-Oct-17 19:44 35.933173 -117.968613 358 11474ft 142kts
06-Oct-17 19:45 35.972787 -117.969501 358 11475ft 142kts
06-Oct-17 19:46 36.012382 -117.970381 358 11475ft 142kts
06-Oct-17 19:47 36.051894 -117.971253 358 11475ft 142kts
06-Oct-17 19:48 36.091512 -117.972843 355 11475ft 142kts
06-Oct-17 19:49 36.129380 -117.976214 356 11476ft 142kts
06-Oct-17 19:50 36.168440 -117.982785 350 11476ft 143kts
06-Oct-17 19:51 36.207542 -117.991586 349 11476ft 143kts
06-Oct-17 19:52 36.246604 -118.000399 349 11476ft 143kts
06-Oct-17 19:53 36.285369 -118.008876 349 11475ft 140kts
06-Oct-17 19:54 36.324083 -118.016788 350 11477ft 142kts
06-Oct-17 19:55 36.363359 -118.024791 350 11476ft 143kts
06-Oct-17 19:56 36.402732 -118.026560 8 11477ft 144kts
06-Oct-17 19:57 36.442177 -118.018100 9 11476ft 144kts
06-Oct-17 19:58 36.461855 -117.976848 66 11479ft 151kts
06-Oct-17 19:59 36.476120 -117.927653 66 11476ft 151kts
06-Oct-17 20:00 36.486775 -117.876020 81 11479ft 159kts
06-Oct-17 20:01 36.486789 -117.820440 91 11476ft 163kts
06-Oct-17 20:02 36.481780 -117.764171 95 11480ft 164kts
06-Oct-17 20:03 36.474666 -117.707432 95 11478ft 168kts
06-Oct-17 20:04 36.466918 -117.650228 95 11476ft 167kts
06-Oct-17 20:05 36.458847 -117.593098 95 11476ft 167kts
06-Oct-17 20:06 36.450684 -117.536414 96 11516ft 167kts
06-Oct-17 20:07 36.442367 -117.479378 96 11516ft 168kts
06-Oct-17 20:08 36.433989 -117.421986 96 11516ft 168kts
06-Oct-17 20:09 36.425601 -117.364831 96 11516ft 169kts
06-Oct-17 20:10 36.417105 -117.308440 97 11525ft 168kts
06-Oct-17 20:11 36.408572 -117.251292 97 11524ft 168kts
06-Oct-17 20:12 36.399861 -117.193591 95 11525ft 170kts
06-Oct-17 20:13 36.391364 -117.135720 95 11525ft 170kts
06-Oct-17 20:14 36.382786 -117.077865 95 11525ft 170kts
06-Oct-17 20:15 36.374168 -117.020117 95 11559ft 169kts
06-Oct-17 20:16 36.365558 -116.962556 95 11562ft 170kts
06-Oct-17 20:17 36.356844 -116.904562 95 11562ft 171kts
06-Oct-17 20:18 36.348190 -116.847227 95 11561ft 168kts
06-Oct-17 20:19 36.339625 -116.790604 95 11562ft 167kts
06-Oct-17 20:20 36.331072 -116.734088 95 11562ft 166kts
06-Oct-17 20:21 36.322457 -116.677646 95 11562ft 166kts
06-Oct-17 20:22 36.313811 -116.621235 95 11562ft 166kts
06-Oct-17 20:23 36.305165 -116.564996 95 11562ft 166kts
06-Oct-17 20:24 36.296468 -116.508701 95 11562ft 166kts
06-Oct-17 20:25 36.287753 -116.452316 95 11563ft 166kts
06-Oct-17 20:26 36.278996 -116.396039 95 11563ft 166kts
06-Oct-17 20:27 36.270258 -116.340087 96 11561ft 166kts
06-Oct-17 20:28 36.261291 -116.283830 96 11561ft 166kts
06-Oct-17 20:29 36.254501 -116.240628 96 11562ft 166kts
06-Oct-17 20:30 36.248852 -116.204856 95 11561ft 165kts
06-Oct-17 20:31 36.240066 -116.149235 95 11562ft 164kts
06-Oct-17 20:32 36.231304 -116.093501 95 11562ft 164kts
06-Oct-17 20:33 36.222451 -116.037421 95 11409ft 164kts
06-Oct-17 20:34 36.213845 -115.983139 95 11011ft 158kts
06-Oct-17 20:35 36.205398 -115.929908 95 10604ft 157kts
06-Oct-17 20:36 36.189764 -115.879750 118 10193ft 161kts
06-Oct-17 20:37 36.165753 -115.834470 118 10020ft 149kts
06-Oct-17 20:38 36.143057 -115.791620 118 9718ft 150kts
06-Oct-17 20:39 36.122712 -115.746770 105 9236ft 148kts
06-Oct-17 20:40 36.112556 -115.700602 95 9073ft 127kts
06-Oct-17 20:41 36.107673 -115.659692 91 9089ft 117kts
06-Oct-17 20:42 36.103591 -115.620720 91 9094ft 113kts
06-Oct-17 20:43 36.099619 -115.579786 84 9023ft 126kts
06-Oct-17 20:44 36.105768 -115.533331 73 8294ft 147kts
06-Oct-17 20:45 36.128984 -115.495620 41 7479ft 138kts
06-Oct-17 20:46 36.152033 -115.455459 58 6280ft 143kts
06-Oct-17 20:47 36.169638 -115.413020 64 5190ft 138kts
06-Oct-17 20:48 36.180346 -115.371153 68 4521ft 127kts
06-Oct-17 20:49 36.189853 -115.331382 76 3904ft 112kts
06-Oct-17 20:50 36.201449 -115.298424 60 3393ft 95kts
06-Oct-17 20:51 36.212062 -115.268966 58 2935ft 94kts
06-Oct-17 20:52 36.227538 -115.241587 55 2837ft 95kts
06-Oct-17 20:53 36.223293 -115.213695 140 2466ft 92kts
06-Oct-17 20:54 36.208989 -115.195444 133 2208ft 32kts
06-Oct-17 20:55 36.207970 -115.195338 224 2208ft 0kts
06-Oct-17 20:56 36.207970 -115.195338 224 2208ft 0kts
06-Oct-17 20:57 36.208958 -115.197249 314 2208ft 22kts
06-Oct-17 20:58 36.211055 -115.200355 48 2208ft 0kts
06-Oct-17 20:59 36.211056 -115.200354 52 2208ft 0kts

Navigation Log

Ident Type
Flight plan parsing failed, navigation log unavailable